createdAt,value
2019-05-30T00:02:42.012Z,10.46
2019-05-30T00:07:49.147Z,10.32
2019-05-30T00:12:54.776Z,10.08
2019-05-30T00:18:02.815Z,9.98
2019-05-30T00:23:09.259Z,10.09
2019-05-30T00:28:14.942Z,10.22
2019-05-30T00:33:20.965Z,9.89
2019-05-30T00:38:26.511Z,9.80
2019-05-30T00:43:34.778Z,9.78
2019-05-30T00:48:40.338Z,9.64
2019-05-30T00:53:45.792Z,9.34
2019-05-30T00:58:51.367Z,9.26
2019-05-30T01:03:57.150Z,9.83
2019-05-30T01:09:03.185Z,9.34
2019-05-30T01:14:08.784Z,8.95
2019-05-30T01:19:14.970Z,9.05
2019-05-30T01:24:20.548Z,8.99
2019-05-30T01:29:26.073Z,9.17
2019-05-30T01:34:32.276Z,9.04
2019-05-30T01:39:37.842Z,9.12
2019-05-30T01:44:43.283Z,8.79
2019-05-30T01:49:49.241Z,8.73
2019-05-30T01:54:54.746Z,8.74
2019-05-30T02:00:00.765Z,8.85
2019-05-30T02:05:07.789Z,8.69
2019-05-30T02:10:15.414Z,8.59
2019-05-30T02:15:21.008Z,8.51
2019-05-30T02:20:26.823Z,8.51
2019-05-30T02:25:32.388Z,8.28
2019-05-30T02:30:37.957Z,8.57
2019-05-30T02:35:44.961Z,8.44
2019-05-30T02:40:50.505Z,8.29
2019-05-30T02:45:57.144Z,8.23
2019-05-30T02:51:03.411Z,8.16
2019-05-30T02:56:10.195Z,8.14
2019-05-30T03:01:16.351Z,8.11
2019-05-30T03:06:22.107Z,7.89
2019-05-30T03:11:27.884Z,8.12
2019-05-30T03:16:33.387Z,8.08
2019-05-30T03:21:38.897Z,8.11
2019-05-30T03:26:45.187Z,8.04
2019-05-30T03:31:51.817Z,8.00
2019-05-30T03:36:59.288Z,8.02
2019-05-30T03:42:07.549Z,8.03
2019-05-30T03:47:16.997Z,8.23
2019-05-30T03:52:25.359Z,8.37
2019-05-30T03:57:35.211Z,8.53
2019-05-30T04:03:01.834Z,9.84
2019-05-30T04:08:11.864Z,11.78
2019-05-30T04:13:28.631Z,12.98
2019-05-30T04:18:34.153Z,13.70
2019-05-30T04:23:39.630Z,14.05
2019-05-30T04:28:45.145Z,14.66
2019-05-30T04:33:50.763Z,14.81
2019-05-30T04:38:56.631Z,14.31
2019-05-30T04:44:02.372Z,14.13
2019-05-30T04:49:07.927Z,13.80
2019-05-30T04:54:15.193Z,13.81
2019-05-30T04:59:22.242Z,14.77
2019-05-30T05:04:27.959Z,15.07
2019-05-30T05:09:34.964Z,15.02
2019-05-30T05:14:40.531Z,15.91
2019-05-30T05:19:46.147Z,15.86
2019-05-30T05:24:51.704Z,16.26
2019-05-30T05:29:57.254Z,15.69
2019-05-30T05:35:02.880Z,17.04
2019-05-30T05:40:09.100Z,15.85
2019-05-30T05:45:16.263Z,16.67
2019-05-30T05:50:22.565Z,17.18
2019-05-30T05:55:29.153Z,17.72
2019-05-30T06:00:35.143Z,17.86
2019-05-30T06:05:52.558Z,17.92
2019-05-30T06:10:47.815Z,17.07
2019-05-30T06:15:53.328Z,18.19
2019-05-30T06:20:58.815Z,18.61
2019-05-30T06:26:05.114Z,18.90
2019-05-30T06:31:10.795Z,17.41
2019-05-30T06:36:16.368Z,18.60
2019-05-30T06:41:23.574Z,18.90
2019-05-30T06:46:31.549Z,18.99
2019-05-30T06:51:37.146Z,18.73
2019-05-30T06:56:44.803Z,19.22
2019-05-30T07:01:52.056Z,19.28
2019-05-30T07:06:57.395Z,20.16
2019-05-30T07:12:06.404Z,19.42
2019-05-30T07:17:12.045Z,19.41
2019-05-30T07:22:17.591Z,20.53
2019-05-30T07:27:23.749Z,20.94
2019-05-30T07:32:30.076Z,21.28
2019-05-30T07:37:35.771Z,19.52
2019-05-30T07:42:43.747Z,20.13
2019-05-30T07:47:49.327Z,20.57
2019-05-30T07:52:55.463Z,21.23
2019-05-30T07:58:01.278Z,21.78
2019-05-30T08:03:07.370Z,20.66
2019-05-30T08:08:14.548Z,19.71
2019-05-30T08:13:21.207Z,21.08
2019-05-30T08:18:27.587Z,21.18
2019-05-30T08:23:34.268Z,22.53
2019-05-30T08:28:42.606Z,21.58
2019-05-30T08:33:47.637Z,21.51
2019-05-30T08:38:53.247Z,21.88
2019-05-30T08:43:58.954Z,20.77
2019-05-30T08:49:04.868Z,19.08
2019-05-30T08:54:13.957Z,20.41
2019-05-30T08:59:19.673Z,19.68
2019-05-30T09:04:25.345Z,21.57
2019-05-30T09:09:30.917Z,22.18
2019-05-30T09:14:37.842Z,20.77
2019-05-30T09:19:45.328Z,19.93
2019-05-30T09:24:51.062Z,20.49
2019-05-30T09:29:56.902Z,22.50
2019-05-30T09:35:02.629Z,21.55
2019-05-30T09:40:09.396Z,22.31
2019-05-30T09:45:18.010Z,22.93
2019-05-30T09:50:23.747Z,22.64
2019-05-30T09:55:29.466Z,22.05
2019-05-30T10:00:35.849Z,21.43
2019-05-30T10:05:43.304Z,19.47
2019-05-30T10:10:51.281Z,20.11
2019-05-30T10:15:58.183Z,20.04
2019-05-30T10:21:07.479Z,21.08
2019-05-30T10:26:13.079Z,22.79
2019-05-30T10:31:18.877Z,22.74
2019-05-30T10:36:24.661Z,20.05
2019-05-30T10:41:30.202Z,19.74
2019-05-30T10:46:36.608Z,21.95
2019-05-30T10:51:42.067Z,21.99
2019-05-30T10:56:48.415Z,21.93
2019-05-30T11:01:56.591Z,21.34
2019-05-30T11:07:53.159Z,21.06
2019-05-30T11:12:48.333Z,21.34
2019-05-30T11:17:56.180Z,21.64
2019-05-30T11:23:01.911Z,19.83
2019-05-30T11:28:08.775Z,21.84
2019-05-30T11:33:14.335Z,21.43
2019-05-30T11:38:19.783Z,20.04
2019-05-30T11:43:25.360Z,21.17
2019-05-30T11:48:31.316Z,22.90
2019-05-30T11:53:36.877Z,23.24
2019-05-30T11:58:42.467Z,21.32
2019-05-30T12:03:47.922Z,22.79
2019-05-30T12:08:55.225Z,23.75
2019-05-30T12:14:03.329Z,24.25
2019-05-30T12:19:09.018Z,22.89
2019-05-30T12:24:14.842Z,21.63
2019-05-30T12:29:22.530Z,21.18
2019-05-30T12:34:27.961Z,22.90
2019-05-30T12:39:33.536Z,21.63
2019-05-30T12:44:39.221Z,21.21
2019-05-30T12:49:44.952Z,20.26
2019-05-30T12:54:50.476Z,20.80
2019-05-30T12:59:57.157Z,21.36
2019-05-30T13:05:03.157Z,22.15
2019-05-30T13:10:10.521Z,21.78
2019-05-30T13:15:16.279Z,23.22
2019-05-30T13:20:22.875Z,23.57
2019-05-30T13:25:30.334Z,20.60
2019-05-30T13:30:36.161Z,20.68
2019-05-30T13:35:41.745Z,21.48
2019-05-30T13:40:47.385Z,21.39
2019-05-30T13:50:58.634Z,21.09
2019-05-30T13:56:05.474Z,20.88
2019-05-30T14:01:13.839Z,20.68
2019-05-30T14:06:19.966Z,21.00
2019-05-30T14:11:25.955Z,20.87
2019-05-30T14:16:31.514Z,21.86
2019-05-30T14:21:38.545Z,21.69
2019-05-30T14:26:44.106Z,21.84
2019-05-30T14:31:49.665Z,21.02
2019-05-30T14:36:55.375Z,22.59
2019-05-30T14:42:01.028Z,23.29
2019-05-30T14:47:10.461Z,23.78
2019-05-30T14:52:17.953Z,21.52
2019-05-30T14:57:23.445Z,22.30
2019-05-30T15:02:29.138Z,23.34
2019-05-30T15:07:34.657Z,22.90
2019-05-30T15:12:40.281Z,23.61
2019-05-30T15:17:45.719Z,22.55
2019-05-30T15:22:51.273Z,22.33
2019-05-30T15:27:56.843Z,23.38
2019-05-30T15:33:02.532Z,22.06
2019-05-30T15:38:08.776Z,21.84
2019-05-30T15:43:15.545Z,22.85
2019-05-30T15:48:21.167Z,23.21
2019-05-30T15:53:27.332Z,22.72
2019-05-30T15:58:32.974Z,21.80
2019-05-30T16:03:38.430Z,22.70
2019-05-30T16:08:45.671Z,21.23
2019-05-30T16:13:51.398Z,22.21
2019-05-30T16:18:56.953Z,22.78
2019-05-30T16:24:02.690Z,22.05
2019-05-30T16:29:09.751Z,21.04
2019-05-30T16:34:16.134Z,21.69
2019-05-30T16:39:22.574Z,22.03
2019-05-30T16:44:29.665Z,22.05
2019-05-30T16:49:35.163Z,22.63
2019-05-30T16:54:40.987Z,22.20
2019-05-30T16:59:46.727Z,22.54
2019-05-30T17:04:53.158Z,21.31
2019-05-30T17:09:58.691Z,22.33
2019-05-30T17:15:05.271Z,21.77
2019-05-30T17:20:12.958Z,21.40
2019-05-30T17:25:19.253Z,21.85
2019-05-30T17:30:27.481Z,21.95
2019-05-30T17:35:33.361Z,22.09
2019-05-30T17:40:44.947Z,22.10
2019-05-30T17:45:48.134Z,22.00
2019-05-30T17:50:54.841Z,21.57
2019-05-30T17:56:00.529Z,21.52
2019-05-30T18:01:06.377Z,21.18
2019-05-30T18:06:16.535Z,20.94
2019-05-30T18:11:22.863Z,20.70
2019-05-30T18:16:29.303Z,20.82
2019-05-30T18:21:35.008Z,20.64
2019-05-30T18:26:44.158Z,20.65
2019-05-30T18:31:52.413Z,20.35
2019-05-30T18:36:57.906Z,20.22
2019-05-30T18:42:04.941Z,20.02
2019-05-30T18:47:10.567Z,19.96
2019-05-30T18:52:17.365Z,19.88
2019-05-30T18:57:24.591Z,19.81
2019-05-30T19:02:31.135Z,19.57
2019-05-30T19:07:37.998Z,19.68
2019-05-30T19:12:43.958Z,19.43
2019-05-30T19:17:49.554Z,19.06
2019-05-30T19:22:55.231Z,18.92
2019-05-30T19:28:01.007Z,19.11
2019-05-30T19:33:07.092Z,19.02
2019-05-30T19:38:12.887Z,18.66
2019-05-30T19:43:18.971Z,18.61
2019-05-30T19:48:24.624Z,18.63
2019-05-30T19:53:30.815Z,18.55
2019-05-30T19:58:37.611Z,18.63
2019-05-30T20:03:47.011Z,18.30
2019-05-30T20:08:55.760Z,18.56
2019-05-30T20:13:59.773Z,18.25
2019-05-30T20:19:05.548Z,18.10
2019-05-30T20:24:11.272Z,18.10
2019-05-30T20:29:18.373Z,18.12
2019-05-30T20:34:24.452Z,18.07
2019-05-30T20:39:30.095Z,17.88
2019-05-30T20:44:36.908Z,17.99
2019-05-30T20:49:43.408Z,17.82
2019-05-30T20:54:49.111Z,17.78
2019-05-30T20:59:55.165Z,17.69
2019-05-30T21:05:00.802Z,17.81
2019-05-30T21:10:07.111Z,17.64
2019-05-30T21:15:13.072Z,17.83
2019-05-30T21:20:19.525Z,17.72
2019-05-30T21:25:25.081Z,17.62
2019-05-30T21:30:30.693Z,17.50
2019-05-30T21:35:37.406Z,17.55
2019-05-30T21:40:42.879Z,17.57
2019-05-30T21:45:48.945Z,17.60
2019-05-30T21:50:54.676Z,17.57
2019-05-30T21:56:00.298Z,17.51
2019-05-30T22:01:34.578Z,17.50
2019-05-30T22:06:40.823Z,17.65
2019-05-30T22:11:47.683Z,17.62
2019-05-30T22:16:53.923Z,17.73
2019-05-30T22:21:59.475Z,17.75
2019-05-30T22:27:07.223Z,17.67
2019-05-30T22:32:12.821Z,17.28
2019-05-30T22:37:18.697Z,17.32
2019-05-30T22:42:24.225Z,17.33
2019-05-30T22:47:29.766Z,17.39
2019-05-30T22:52:35.389Z,17.57
2019-05-30T22:57:40.873Z,17.59
2019-05-30T23:02:47.843Z,17.16
2019-05-30T23:07:53.636Z,17.19
2019-05-30T23:12:59.067Z,17.45
2019-05-30T23:18:05.027Z,17.41
2019-05-30T23:23:10.668Z,17.65
2019-05-30T23:28:16.207Z,17.60
2019-05-30T23:33:21.847Z,17.60
2019-05-30T23:38:27.298Z,17.63
2019-05-30T23:43:32.797Z,17.39
2019-05-30T23:48:38.345Z,17.38
2019-05-30T23:53:43.789Z,17.43
2019-05-30T23:58:50.498Z,17.33
